Time;durP1;ratioP1;P1;durP2;ratioP2;P2;SDS_P1;SDS_P2;PMS_P1;PMS_P2;Temp;Humidity;BMP_temperature;BMP_pressure;BME280_temperature;BME280_humidity;BME280_pressure;Samples;Min_cycle;Max_cycle;Signal;HPM_P1;HPM_P2
2022/04/12 00:01:50;;;;;;;;;;;11.10;69.90;;;;;;8392671;28;19924;-75
2022/04/12 00:05:52;;;;;;;;;;;11.10;69.80;;;;;;8394130;28;19928;-75
2022/04/12 00:09:54;;;;;;;;;;;11.10;69.50;;;;;;8399018;28;19920;-75
2022/04/12 00:13:55;;;;;;;;;;;11.10;69.80;;;;;;8394433;28;19924;-75
2022/04/12 00:22:17;;;;;;;;;;;11.00;70.90;;;;;;8390331;28;19940;-75
2022/04/12 00:31:22;;;;;;;;;;;11.00;71.40;;;;;;8391968;28;19919;-75
2022/04/12 00:35:25;;;;;;;;;;;11.00;71.70;;;;;;8398781;28;20393;-75
2022/04/12 00:39:26;;;;;;;;;;;11.00;71.20;;;;;;8395524;28;19935;-75
2022/04/12 00:43:30;;;;;;;;;;;11.00;71.00;;;;;;8396255;28;19935;-75
2022/04/12 00:47:32;;;;;;;;;;;11.10;71.90;;;;;;8397669;28;19929;-75
2022/04/12 00:51:34;;;;;;;;;;;11.10;72.00;;;;;;8389542;28;20675;-75
2022/04/12 00:55:36;;;;;;;;;;;11.10;71.90;;;;;;8396627;28;19920;-75
2022/04/12 00:59:37;;;;;;;;;;;11.00;70.80;;;;;;8393287;28;19920;-75
2022/04/12 01:03:39;;;;;;;;;;;11.00;70.90;;;;;;8394850;28;19928;-75
2022/04/12 01:07:42;;;;;;;;;;;10.90;70.90;;;;;;8394434;28;19924;-75
2022/04/12 01:11:48;;;;;;;;;;;10.90;71.40;;;;;;8381408;28;19927;-75
2022/04/12 01:15:50;;;;;;;;;;;10.80;71.40;;;;;;8393695;28;20686;-76
2022/04/12 01:19:52;;;;;;;;;;;10.70;71.60;;;;;;8398450;28;19966;-75
2022/04/12 01:24:00;;;;;;;;;;;10.60;71.30;;;;;;8392717;28;19927;-75
2022/04/12 01:28:02;;;;;;;;;;;10.60;71.50;;;;;;8387407;28;19996;-75
2022/04/12 01:32:07;;;;;;;;;;;10.50;71.80;;;;;;8382489;28;20311;-75
2022/04/12 01:36:09;;;;;;;;;;;10.40;71.80;;;;;;8392035;28;19927;-75
2022/04/12 01:40:11;;;;;;;;;;;10.40;72.20;;;;;;8394957;28;19935;-75
2022/04/12 01:44:13;;;;;;;;;;;10.30;72.40;;;;;;8390787;28;19924;-75
2022/04/12 01:48:14;;;;;;;;;;;10.30;71.90;;;;;;8390205;28;19920;-75
2022/04/12 01:52:16;;;;;;;;;;;10.20;72.30;;;;;;8395423;28;20372;-75
2022/04/12 01:56:18;;;;;;;;;;;10.20;71.60;;;;;;8396654;28;19927;-75
2022/04/12 02:00:19;;;;;;;;;;;10.10;73.20;;;;;;8395759;28;19920;-75
2022/04/12 02:04:21;;;;;;;;;;;10.10;72.00;;;;;;8392265;28;19928;-75
2022/04/12 02:08:23;;;;;;;;;;;10.00;72.10;;;;;;8386306;28;20288;-75
2022/04/12 02:12:24;;;;;;;;;;;10.00;72.00;;;;;;8391174;28;19921;-75
2022/04/12 02:16:26;;;;;;;;;;;10.00;72.20;;;;;;8383800;28;19932;-75
2022/04/12 02:20:27;;;;;;;;;;;9.90;73.70;;;;;;8392353;28;19926;-75
2022/04/12 02:24:30;;;;;;;;;;;9.90;74.10;;;;;;8393359;28;19939;-75
2022/04/12 02:28:32;;;;;;;;;;;10.00;73.40;;;;;;8389701;28;20229;-75
2022/04/12 02:32:34;;;;;;;;;;;10.00;73.00;;;;;;8393748;28;19943;-75
2022/04/12 02:36:35;;;;;;;;;;;10.00;73.50;;;;;;8388908;28;20379;-76
2022/04/12 02:40:37;;;;;;;;;;;10.00;73.60;;;;;;8385389;28;19925;-75
2022/04/12 02:44:38;;;;;;;;;;;10.00;73.70;;;;;;8393126;28;19927;-75
2022/04/12 02:48:40;;;;;;;;;;;9.90;74.40;;;;;;8386462;28;19928;-74
2022/04/12 02:52:42;;;;;;;;;;;9.90;74.30;;;;;;8396197;28;19924;-75
2022/04/12 02:56:43;;;;;;;;;;;9.90;74.10;;;;;;8389062;28;19920;-76
2022/04/12 03:00:45;;;;;;;;;;;9.80;73.70;;;;;;8384281;28;19920;-75
2022/04/12 03:04:47;;;;;;;;;;;9.80;74.70;;;;;;8390655;28;19924;-75
2022/04/12 03:08:48;;;;;;;;;;;9.70;74.00;;;;;;8392517;28;19924;-75
2022/04/12 03:12:50;;;;;;;;;;;9.70;74.30;;;;;;8383894;28;19924;-75
2022/04/12 03:16:52;;;;;;;;;;;9.60;75.50;;;;;;8390307;28;19962;-75
2022/04/12 03:20:53;;;;;;;;;;;9.60;74.50;;;;;;8395809;28;19948;-75
2022/04/12 03:24:56;;;;;;;;;;;9.50;74.60;;;;;;8384184;28;19928;-75
2022/04/12 03:28:58;;;;;;;;;;;9.50;75.00;;;;;;8395409;28;19976;-75
2022/04/12 03:32:59;;;;;;;;;;;9.40;75.00;;;;;;8393907;28;19928;-75
2022/04/12 03:37:01;;;;;;;;;;;9.40;75.80;;;;;;8388371;28;19943;-75
2022/04/12 03:41:03;;;;;;;;;;;9.40;75.00;;;;;;8391482;28;19920;-75
2022/04/12 03:45:05;;;;;;;;;;;9.30;74.70;;;;;;8388165;28;20402;-75
2022/04/12 03:49:07;;;;;;;;;;;9.30;75.10;;;;;;8396860;28;19928;-75
2022/04/12 03:53:09;;;;;;;;;;;9.30;75.00;;;;;;8398905;28;19935;-75
2022/04/12 03:57:10;;;;;;;;;;;9.20;75.10;;;;;;8385923;28;19925;-74
2022/04/12 04:01:12;;;;;;;;;;;9.20;75.10;;;;;;8392868;28;20026;-75
2022/04/12 04:05:15;;;;;;;;;;;9.20;75.20;;;;;;8389670;28;19929;-76
2022/04/12 04:09:16;;;;;;;;;;;9.20;75.40;;;;;;8395089;28;19943;-75
2022/04/12 04:13:18;;;;;;;;;;;9.20;75.90;;;;;;8395414;28;20295;-75
2022/04/12 04:17:21;;;;;;;;;;;9.20;76.00;;;;;;8393415;28;19980;-75
2022/04/12 04:21:23;;;;;;;;;;;9.20;77.90;;;;;;8420575;27;19973;-76
2022/04/12 04:25:25;;;;;;;;;;;9.30;77.00;;;;;;8419529;27;20007;-75
2022/04/12 04:29:33;;;;;;;;;;;9.40;76.70;;;;;;8400897;28;19943;-75
2022/04/12 04:33:34;;;;;;;;;;;9.40;76.50;;;;;;8384601;28;19925;-75
2022/04/12 04:37:42;;;;;;;;;;;9.40;76.90;;;;;;8395609;28;20291;-75
2022/04/12 04:41:59;;;;;;;;;;;9.50;76.50;;;;;;8393668;28;19927;-75
2022/04/12 04:46:01;;;;;;;;;;;9.50;77.20;;;;;;8381844;28;20004;-75
2022/04/12 04:50:03;;;;;;;;;;;9.50;76.50;;;;;;8375867;28;19929;-75
2022/04/12 04:54:04;;;;;;;;;;;9.40;77.20;;;;;;8384964;28;20011;-75
2022/04/12 04:58:06;;;;;;;;;;;9.40;77.30;;;;;;8403577;28;19931;-75
2022/04/12 05:02:08;;;;;;;;;;;9.40;76.70;;;;;;8384371;28;19971;-75
2022/04/12 05:06:10;;;;;;;;;;;9.40;76.80;;;;;;8370043;28;20014;-75
2022/04/12 05:10:31;;;;;;;;;;;9.30;77.80;;;;;;8371357;28;19920;-75
2022/04/12 05:14:33;;;;;;;;;;;9.30;77.60;;;;;;8381476;28;19928;-75
2022/04/12 05:18:35;;;;;;;;;;;9.30;76.80;;;;;;8381441;28;19928;-75
2022/04/12 05:22:36;;;;;;;;;;;9.20;77.10;;;;;;8391266;28;19928;-75
2022/04/12 05:26:38;;;;;;;;;;;9.20;77.00;;;;;;8394041;28;19920;-75
2022/04/12 05:30:40;;;;;;;;;;;9.20;77.70;;;;;;8401296;28;20003;-75
2022/04/12 05:34:43;;;;;;;;;;;9.10;78.70;;;;;;8395072;28;19928;-75
2022/04/12 05:38:44;;;;;;;;;;;9.10;78.30;;;;;;8395841;28;19920;-75
2022/04/12 05:42:46;;;;;;;;;;;9.00;77.60;;;;;;8407063;28;19924;-75
2022/04/12 05:46:48;;;;;;;;;;;9.00;77.60;;;;;;8386585;28;19928;-75
2022/04/12 05:50:51;;;;;;;;;;;9.00;78.70;;;;;;8387721;28;19932;-75
2022/04/12 05:54:52;;;;;;;;;;;9.00;77.20;;;;;;8385509;28;19936;-75
2022/04/12 05:58:54;;;;;;;;;;;9.00;79.70;;;;;;8393980;28;19920;-75
2022/04/12 06:02:56;;;;;;;;;;;9.00;78.20;;;;;;8382530;28;20384;-75
2022/04/12 06:06:58;;;;;;;;;;;9.10;80.70;;;;;;8397589;28;20352;-75
2022/04/12 06:10:59;;;;;;;;;;;9.20;80.40;;;;;;8386441;28;19927;-75
2022/04/12 06:15:01;;;;;;;;;;;9.40;81.30;;;;;;8386647;28;19925;-75
2022/04/12 06:19:02;;;;;;;;;;;9.60;81.50;;;;;;8383204;28;19928;-75
2022/04/12 06:23:04;;;;;;;;;;;9.80;82.80;;;;;;8394088;28;19920;-76
2022/04/12 06:27:06;;;;;;;;;;;9.90;82.60;;;;;;8395197;28;19920;-76
2022/04/12 06:31:07;;;;;;;;;;;10.10;82.10;;;;;;8383880;28;19947;-75
2022/04/12 06:35:10;;;;;;;;;;;10.20;83.00;;;;;;8392365;28;19924;-76
2022/04/12 06:39:12;;;;;;;;;;;10.30;82.30;;;;;;8382415;28;19920;-75
2022/04/12 06:43:13;;;;;;;;;;;10.40;81.60;;;;;;8383965;28;19929;-75
2022/04/12 06:47:18;;;;;;;;;;;10.60;84.10;;;;;;8388492;28;19931;-75
2022/04/12 06:51:20;;;;;;;;;;;10.70;82.30;;;;;;8384205;28;20367;-75
2022/04/12 06:55:21;;;;;;;;;;;10.80;83.20;;;;;;8382896;28;19935;-75
2022/04/12 06:59:25;;;;;;;;;;;11.00;85.10;;;;;;8378402;28;19927;-76
2022/04/12 07:03:27;;;;;;;;;;;11.10;84.20;;;;;;8384603;28;19920;-76
2022/04/12 07:07:28;;;;;;;;;;;11.30;85.40;;;;;;8381410;28;20006;-75
2022/04/12 07:11:30;;;;;;;;;;;11.40;84.10;;;;;;8384413;28;19932;-75
2022/04/12 07:15:32;;;;;;;;;;;11.60;85.30;;;;;;8390295;28;20300;-76
2022/04/12 07:19:33;;;;;;;;;;;11.80;84.90;;;;;;8389089;28;19920;-75
2022/04/12 07:23:36;;;;;;;;;;;11.90;84.80;;;;;;8394791;28;19927;-75
2022/04/12 07:27:38;;;;;;;;;;;12.00;87.10;;;;;;8405677;28;19924;-75
2022/04/12 07:31:40;;;;;;;;;;;12.10;86.60;;;;;;8409092;28;19920;-75
2022/04/12 07:35:41;;;;;;;;;;;12.30;86.90;;;;;;8400423;28;19931;-75
2022/04/12 07:39:43;;;;;;;;;;;12.40;87.80;;;;;;8387150;28;20234;-75
2022/04/12 07:43:46;;;;;;;;;;;12.60;86.80;;;;;;8391209;28;20288;-75
2022/04/12 07:47:47;;;;;;;;;;;12.70;87.10;;;;;;8392617;28;19920;-75
2022/04/12 07:51:49;;;;;;;;;;;12.80;86.80;;;;;;8395694;28;19957;-75
2022/04/12 07:55:51;;;;;;;;;;;12.90;88.10;;;;;;8389617;28;19927;-75
2022/04/12 07:59:52;;;;;;;;;;;13.00;87.10;;;;;;8403975;28;19920;-76
2022/04/12 08:03:54;;;;;;;;;;;13.20;87.90;;;;;;8398333;28;19943;-75
2022/04/12 08:07:56;;;;;;;;;;;13.40;88.20;;;;;;8397537;28;19944;-75
2022/04/12 08:11:57;;;;;;;;;;;13.50;88.20;;;;;;8390906;28;20394;-75
2022/04/12 08:15:59;;;;;;;;;;;13.70;88.80;;;;;;8390839;28;19931;-75
2022/04/12 08:20:01;;;;;;;;;;;13.80;88.60;;;;;;8391324;28;20284;-75
2022/04/12 08:24:03;;;;;;;;;;;14.00;89.20;;;;;;8394547;28;20402;-76
2022/04/12 08:28:05;;;;;;;;;;;14.20;89.70;;;;;;8393175;28;19920;-75
2022/04/12 08:32:06;;;;;;;;;;;14.20;89.60;;;;;;8394211;28;20364;-75
2022/04/12 08:36:08;;;;;;;;;;;14.40;90.00;;;;;;8382374;28;19929;-76
2022/04/12 08:40:11;;;;;;;;;;;14.50;90.00;;;;;;8388435;28;19929;-75
2022/04/12 08:44:16;;;;;;;;;;;14.60;90.10;;;;;;8392550;28;19929;-76
2022/04/12 08:48:17;;;;;;;;;;;14.80;90.40;;;;;;8390095;28;20292;-75
2022/04/12 08:52:23;;;;;;;;;;;15.00;90.60;;;;;;8387845;28;19924;-76
2022/04/12 08:56:25;;;;;;;;;;;15.20;90.50;;;;;;8384199;28;19920;-76
2022/04/12 09:00:27;;;;;;;;;;;15.40;90.80;;;;;;8393266;28;19920;-76
2022/04/12 09:04:29;;;;;;;;;;;15.60;90.80;;;;;;8391672;28;19924;-76
2022/04/12 09:08:31;;;;;;;;;;;15.70;91.10;;;;;;8404562;28;20343;-76
2022/04/12 09:12:34;;;;;;;;;;;15.80;90.80;;;;;;8394922;28;19931;-76
2022/04/12 09:16:41;;;;;;;;;;;15.90;90.90;;;;;;8388966;28;20285;-76
2022/04/12 09:20:43;;;;;;;;;;;16.10;91.20;;;;;;8388375;28;19924;-76
2022/04/12 09:24:49;;;;;;;;;;;16.30;91.50;;;;;;8388248;28;19920;-76
2022/04/12 09:28:52;;;;;;;;;;;16.50;91.20;;;;;;8391226;28;19920;-75
2022/04/12 09:32:56;;;;;;;;;;;16.70;91.40;;;;;;8393737;28;19969;-76
2022/04/12 09:36:57;;;;;;;;;;;16.90;91.50;;;;;;8387688;28;19924;-76
2022/04/12 09:41:19;;;;;;;;;;;17.00;91.50;;;;;;8382291;28;19920;-75
2022/04/12 09:45:22;;;;;;;;;;;17.00;90.90;;;;;;8383748;28;19927;-75
2022/04/12 09:49:43;;;;;;;;;;;17.10;91.10;;;;;;8381840;28;19939;-75
2022/04/12 09:53:45;;;;;;;;;;;17.20;91.10;;;;;;8382950;28;19923;-76
2022/04/12 09:57:47;;;;;;;;;;;17.30;91.20;;;;;;8397456;28;19920;-76
2022/04/12 10:01:49;;;;;;;;;;;17.40;91.30;;;;;;8391961;28;19925;-73
2022/04/12 10:05:51;;;;;;;;;;;17.60;91.50;;;;;;8396865;28;20383;-74
2022/04/12 10:09:53;;;;;;;;;;;17.80;91.50;;;;;;8389523;28;19932;-76
2022/04/12 10:13:55;;;;;;;;;;;17.90;91.90;;;;;;8384359;28;19961;-76
2022/04/12 10:17:56;;;;;;;;;;;18.20;92.20;;;;;;8393015;28;19920;-76
2022/04/12 10:21:58;;;;;;;;;;;18.50;92.60;;;;;;8392939;28;19932;-76
2022/04/12 10:26:00;;;;;;;;;;;18.90;92.70;;;;;;8384350;28;19920;-76
2022/04/12 10:30:21;;;;;;;;;;;19.20;93.70;;;;;;8385442;28;19927;-76
2022/04/12 10:34:23;;;;;;;;;;;19.50;94.70;;;;;;8386185;28;19992;-76
2022/04/12 10:38:26;;;;;;;;;;;19.70;95.90;;;;;;8384571;28;19921;-76
2022/04/12 10:42:31;;;;;;;;;;;20.00;97.20;;;;;;8390401;28;19921;-76
2022/04/12 10:46:51;;;;;;;;;;;20.40;99.20;;;;;;8407709;28;19928;-76
2022/04/12 10:50:55;;;;;;;;;;;20.80;99.90;;;;;;8398460;28;19931;-76
2022/04/12 10:54:57;;;;;;;;;;;21.10;99.90;;;;;;8435976;27;19921;-76
2022/04/12 10:58:59;;;;;;;;;;;21.30;99.90;;;;;;8403352;28;19921;-76
2022/04/12 11:03:01;;;;;;;6.15;4.10;;;21.20;99.90;;;;;;8403372;28;19920;-76
2022/04/12 11:07:05;;;;;;;;;;;20.90;98.80;;;;;;8407273;28;19938;-76
2022/04/12 11:11:09;;;;;;;;;;;20.40;97.00;;;;;;8397822;28;19971;-76
2022/04/12 11:15:20;;;;;;;5.55;3.70;;;20.20;96.30;;;;;;8394199;28;19978;-76
2022/04/12 11:19:24;;;;;;;;;;;20.00;95.80;;;;;;8389117;28;20045;-76
2022/04/12 11:23:44;;;;;;;;;;;20.10;95.00;;;;;;8389590;28;19973;-76
2022/04/12 11:27:47;;;;;;;;;;;20.10;95.20;;;;;;8391631;28;20299;-76
2022/04/12 11:31:50;;;;;;;;;;;20.40;95.90;;;;;;8403306;28;19920;-76
2022/04/12 11:35:52;;;;;;;6.47;3.75;;;21.00;98.10;;;;;;8392239;28;20292;-76
2022/04/12 11:39:54;;;;;;;;;;;21.90;99.90;;;;;;8391530;28;19928;-76
2022/04/12 11:44:00;;;;;;;6.88;3.90;;;22.30;99.90;;;;;;8407508;28;19924;-76
2022/04/12 11:48:05;;;;;;;5.80;3.17;;;22.20;98.50;;;;;;8399988;28;20062;-76
2022/04/12 11:52:08;;;;;;;;;;;21.90;97.40;;;;;;8393964;28;19932;-76
2022/04/12 11:56:10;;;;;;;;;;;21.60;96.70;;;;;;8393327;28;19925;-76
2022/04/12 12:00:12;;;;;;;;;;;21.30;95.30;;;;;;8396257;28;19950;-76
2022/04/12 12:04:15;;;;;;;;;;;21.10;94.60;;;;;;8389317;28;19946;-76
2022/04/12 12:08:20;;;;;;;;;;;21.20;94.80;;;;;;8416720;27;20290;-76
2022/04/12 12:12:34;;;;;;;;;;;21.20;94.10;;;;;;8388394;28;20406;-76
2022/04/12 12:16:35;;;;;;;;;;;21.40;94.60;;;;;;8389786;28;19932;-76
2022/04/12 12:20:38;;;;;;;;;;;21.90;96.50;;;;;;8389159;28;19924;-76
2022/04/12 12:24:48;;;;;;;;;;;22.60;98.40;;;;;;8398026;28;20225;-76
2022/04/12 12:28:55;;;;;;;;;;;23.20;98.50;;;;;;8398507;28;19925;-76
2022/04/12 12:32:57;;;;;;;;;;;23.40;97.10;;;;;;8395983;28;19939;-76
2022/04/12 12:37:05;;;;;;;;;;;23.30;95.60;;;;;;8390264;28;19935;-75
2022/04/12 12:41:07;;;;;;;;;;;23.20;95.00;;;;;;8385966;28;19928;-76
2022/04/12 12:45:17;;;;;;;;;;;23.00;93.40;;;;;;8396364;28;20392;-76
2022/04/12 12:49:19;;;;;;;;;;;23.00;93.10;;;;;;8386326;28;19970;-75
2022/04/12 12:53:24;;;;;;;;;;;23.10;92.60;;;;;;8386869;28;19931;-76
2022/04/12 12:57:36;;;;;;;;;;;23.00;91.90;;;;;;8394875;28;19925;-76
2022/04/12 13:01:44;;;;;;;;;;;23.00;91.30;;;;;;8379664;28;19947;-76
2022/04/12 13:05:59;;;;;;;;;;;22.90;91.00;;;;;;8363689;28;19972;-76
2022/04/12 13:10:06;;;;;;;;;;;22.80;90.20;;;;;;8363065;28;19933;-75
2022/04/12 13:14:08;;;;;;;;;;;22.80;90.40;;;;;;8360441;28;20388;-75
2022/04/12 13:18:10;;;;;;;;;;;23.00;90.50;;;;;;8363602;28;20031;-76
2022/04/12 13:22:12;;;;;;;;;;;23.10;90.20;;;;;;8398360;28;20269;-76
2022/04/12 13:26:14;;;;;;;;;;;23.20;89.60;;;;;;8373584;28;19929;-76
2022/04/12 13:30:16;;;;;;;;;;;23.20;87.90;;;;;;8369005;28;19928;-75
2022/04/12 13:34:18;;;;;;;;;;;23.20;89.20;;;;;;8360500;28;19931;-76
2022/04/12 13:38:20;;;;;;;;;;;23.30;90.10;;;;;;8370038;28;19932;-76
2022/04/12 13:42:22;;;;;;;;;;;23.30;89.50;;;;;;8365618;28;20379;-76
2022/04/12 13:46:23;;;;;;;;;;;23.40;90.00;;;;;;8363956;28;19943;-76
2022/04/12 13:50:25;;;;;;;;;;;23.20;88.10;;;;;;8364861;28;19937;-76
2022/04/12 13:54:28;;;;;;;;;;;23.20;88.80;;;;;;8362375;28;20023;-76
2022/04/12 13:58:29;;;;;;;;;;;23.20;89.70;;;;;;8359109;28;19925;-76
2022/04/12 14:02:31;;;;;;;;;;;23.30;90.00;;;;;;8362582;28;20340;-76
2022/04/12 14:06:33;;;;;;;;;;;23.70;90.30;;;;;;8372280;28;19954;-76
2022/04/12 14:10:35;;;;;;;;;;;24.20;91.70;;;;;;8373525;28;23715;-74
2022/04/12 14:14:36;;;;;;;;;;;24.80;93.20;;;;;;8359539;28;19940;-74
2022/04/12 14:18:39;;;;;;;;;;;25.40;94.30;;;;;;8360385;28;20463;-74
2022/04/12 14:22:40;;;;;;;;;;;25.70;94.10;;;;;;8358664;28;20257;-74
2022/04/12 14:26:42;;;;;;;;;;;25.90;94.50;;;;;;8364417;28;19924;-74
2022/04/12 14:30:48;;;;;;;;;;;26.00;93.90;;;;;;8358800;28;20360;-74
2022/04/12 14:34:59;;;;;;;;;;;26.00;93.80;;;;;;8365872;28;19928;-74
2022/04/12 14:39:00;;;;;;;;;;;25.90;93.00;;;;;;8362215;28;19947;-74
2022/04/12 14:43:02;;;;;;;;;;;26.00;93.00;;;;;;8396565;28;19994;-74
2022/04/12 14:47:04;;;;;;;;;;;26.30;92.60;;;;;;8363925;28;19932;-74
2022/04/12 14:51:06;;;;;;;;;;;26.50;92.40;;;;;;8363077;28;19929;-74
2022/04/12 14:55:08;;;;;;;;;;;26.80;91.30;;;;;;8357753;28;19928;-74
2022/04/12 14:59:10;;;;;;;;;;;27.00;92.30;;;;;;8361043;28;19936;-74
2022/04/12 15:03:11;;;;;;;;;;;27.40;93.20;;;;;;8360314;28;19935;-74
2022/04/12 15:07:13;;;;;;;;;;;27.60;93.30;;;;;;8359237;28;20216;-74
2022/04/12 15:11:15;;;;;;;;;;;27.60;93.20;;;;;;8359121;28;19924;-74
2022/04/12 15:15:17;;;;;;;;;;;27.70;91.00;;;;;;8361011;28;19932;-74
2022/04/12 15:19:18;;;;;;;;;;;27.40;86.90;;;;;;8358140;28;19940;-74
2022/04/12 15:23:20;;;;;;;;;;;27.00;85.80;;;;;;8360912;28;19943;-73
2022/04/12 15:27:21;;;;;;;;;;;26.90;85.90;;;;;;8360507;28;19943;-74
2022/04/12 15:31:23;;;;;;;;;;;27.00;81.90;;;;;;8365194;28;19933;-73
2022/04/12 15:35:28;;;;;;;;;;;26.80;79.00;;;;;;8366401;28;20422;-73
2022/04/12 15:39:30;;;;;;;;;;;26.50;77.90;;;;;;8363698;28;19991;-73
2022/04/12 15:43:33;;;;;;;;;;;26.10;76.70;;;;;;8364075;28;19924;-73
2022/04/12 15:47:35;;;;;;;;;;;25.70;74.60;;;;;;8367472;28;19990;-73
2022/04/12 15:51:37;;;;;;;;;;;25.30;73.00;;;;;;8364675;28;19932;-73
2022/04/12 15:55:39;;;;;;;;;;;24.90;72.90;;;;;;8363959;28;20006;-73
2022/04/12 15:59:40;;;;;;;;;;;24.50;71.80;;;;;;8363507;28;19939;-73
2022/04/12 16:03:43;;;;;;;;;;;24.30;72.10;;;;;;8365140;28;19932;-73
2022/04/12 16:07:47;;;;;;;;;;;24.20;72.40;;;;;;8360762;28;19942;-73
2022/04/12 16:11:49;;;;;;;;;;;24.10;71.80;;;;;;8366475;28;19992;-73
2022/04/12 16:15:54;;;;;;;;;;;23.90;71.90;;;;;;8367559;28;20015;-73
2022/04/12 16:19:56;;;;;;;;;;;23.80;71.70;;;;;;8364653;28;20011;-73
2022/04/12 16:23:57;;;;;;;;;;;23.60;71.40;;;;;;8365622;28;19933;-73
2022/04/12 16:27:59;;;;;;;;;;;23.50;71.30;;;;;;8361616;28;19936;-73
2022/04/12 16:32:01;;;;;;;;;;;23.30;71.10;;;;;;8364814;28;19929;-73
2022/04/12 16:36:03;;;;;;;;;;;23.20;71.10;;;;;;8361190;28;20572;-73
2022/04/12 16:40:05;;;;;;;;;;;23.10;71.20;;;;;;8363047;28;20289;-73
2022/04/12 16:44:07;;;;;;;;;;;23.00;71.40;;;;;;8360554;28;20221;-73
2022/04/12 16:48:09;;;;;;;;;;;23.00;71.80;;;;;;8360850;28;19928;-73
2022/04/12 16:52:10;;;;;;;;;;;23.00;72.10;;;;;;8361975;28;19924;-73
2022/04/12 16:56:13;;;;;;;;;;;23.00;72.00;;;;;;8366715;28;19925;-73
2022/04/12 17:00:15;;;;;;;;;;;22.90;71.80;;;;;;8359706;28;20127;-73
2022/04/12 17:04:17;;;;;;;;;;;22.80;71.80;;;;;;8371131;28;19931;-73
2022/04/12 17:08:18;;;;;;;;;;;22.70;72.10;;;;;;8361399;28;19933;-73
2022/04/12 17:12:20;;;;;;;;;;;22.60;72.00;;;;;;8357771;28;19929;-73
2022/04/12 17:16:23;;;;;;;;;;;22.40;72.10;;;;;;8360642;28;19928;-75
2022/04/12 17:20:24;;;;;;;;;;;22.20;72.00;;;;;;8357622;28;20034;-76
2022/04/12 17:24:26;;;;;;;;;;;22.00;72.40;;;;;;8357111;28;20333;-75
2022/04/12 17:33:31;;;;;;;;;;;21.60;74.10;;;;;;8359739;28;19920;-75
2022/04/12 17:37:36;;;;;;;;;;;21.40;72.70;;;;;;8361300;28;19932;-75
2022/04/12 17:41:38;;;;;;;;;;;21.20;73.30;;;;;;8359379;28;20441;-75
2022/04/12 17:45:40;;;;;;;;;;;21.10;73.00;;;;;;8363521;28;19932;-75
2022/04/12 17:49:42;;;;;;;;;;;20.90;73.20;;;;;;8364082;28;20024;-74
2022/04/12 17:53:44;;;;;;;;;;;20.70;73.60;;;;;;8364768;28;19931;-75
2022/04/12 17:57:46;;;;;;;;;;;20.50;73.60;;;;;;8366580;28;20379;-75
2022/04/12 18:01:48;;;;;;;;;;;20.40;73.50;;;;;;8364144;28;20276;-75
2022/04/12 18:05:49;;;;;;;;;;;20.30;72.90;;;;;;8362521;28;19939;-75
2022/04/12 18:09:51;;;;;;;;;;;20.30;73.10;;;;;;8359820;28;19933;-75
2022/04/12 18:13:53;;;;;;;;;;;20.20;73.00;;;;;;8370188;28;19925;-75
2022/04/12 18:17:55;;;;;;;;;;;20.10;72.60;;;;;;8359517;28;19933;-75
2022/04/12 18:21:57;;;;;;;;;;;20.10;72.60;;;;;;8358035;28;19925;-75
2022/04/12 18:25:58;;;;;;;;;;;20.00;72.90;;;;;;8364143;28;19925;-75
2022/04/12 18:30:04;;;;;;;;;;;19.90;73.20;;;;;;8358687;28;20308;-75
2022/04/12 18:34:05;;;;;;;;;;;19.80;73.40;;;;;;8365866;28;19928;-75
2022/04/12 18:38:07;;;;;;;;;;;19.80;73.60;;;;;;8360531;28;19929;-75
2022/04/12 18:42:09;;;;;;;;;;;19.60;73.80;;;;;;8367815;28;19925;-75
2022/04/12 18:46:10;;;;;;;;;;;19.50;74.20;;;;;;8363134;28;19940;-75
2022/04/12 18:50:12;;;;;;;;;;;19.30;74.30;;;;;;8362330;28;19925;-75
2022/04/12 18:54:14;;;;;;;;;;;19.10;74.70;;;;;;8370446;28;19928;-75
2022/04/12 18:58:18;;;;;;;;;;;19.00;75.20;;;;;;8365655;28;19944;-75
2022/04/12 19:02:19;;;;;;;;;;;18.80;75.50;;;;;;8359320;28;19931;-75
2022/04/12 19:06:21;;;;;;;;;;;18.60;76.00;;;;;;8369776;28;19940;-75
2022/04/12 19:10:23;;;;;;;;;;;18.50;76.60;;;;;;8370943;28;19924;-75
2022/04/12 19:14:24;;;;;;;;;;;18.30;76.80;;;;;;8372903;28;19935;-75
2022/04/12 19:18:26;;;;;;;;;;;18.20;77.20;;;;;;8377868;28;19936;-75
2022/04/12 19:22:28;;;;;;;;;;;18.00;77.60;;;;;;8371457;28;20074;-75
2022/04/12 19:26:29;;;;;;;;;;;18.00;78.20;;;;;;8373885;28;20300;-75
2022/04/12 19:30:31;;;;;;;;;;;17.90;78.50;;;;;;8376623;28;19925;-75
2022/04/12 19:34:33;;;;;;;;;;;17.80;78.70;;;;;;8376178;28;19924;-75
2022/04/12 19:38:34;;;;;;;;;;;17.80;79.80;;;;;;8386497;28;19932;-75
2022/04/12 19:42:36;;;;;;;;;;;17.70;79.50;;;;;;8381285;28;19931;-75
2022/04/12 19:46:38;;;;;;;;;;;17.70;79.90;;;;;;8380055;28;20292;-75
2022/04/12 19:50:40;;;;;;;;;;;17.60;80.20;;;;;;8376889;28;19938;-75
2022/04/12 19:54:41;;;;;;;;;;;17.50;80.60;;;;;;8374075;28;19932;-75
2022/04/12 19:58:46;;;;;;;;;;;17.50;81.00;;;;;;8376436;28;19928;-75
2022/04/12 20:02:48;;;;;;;;;;;17.40;81.10;;;;;;8379333;28;19929;-75
2022/04/12 20:06:49;;;;;;;;;;;17.30;81.20;;;;;;8379794;28;19928;-75
2022/04/12 20:10:51;;;;;;;;;;;17.30;81.40;;;;;;8378930;28;19929;-75
2022/04/12 20:14:54;;;;;;;;;;;17.30;81.60;;;;;;8377384;28;19924;-75
2022/04/12 20:18:56;;;;;;;;;;;17.20;81.70;;;;;;8376744;28;19929;-76
2022/04/12 20:22:58;;;;;;;;;;;17.10;81.80;;;;;;8376929;28;19929;-75
2022/04/12 20:27:00;;;;;;;;;;;17.10;82.20;;;;;;8376417;28;19960;-75
2022/04/12 20:31:01;;;;;;;;;;;17.00;82.40;;;;;;8374865;28;19933;-75
2022/04/12 20:35:04;;;;;;;;;;;16.90;82.60;;;;;;8368328;28;19947;-75
2022/04/12 20:39:06;;;;;;;;;;;16.80;82.60;;;;;;8376043;28;19967;-75
2022/04/12 20:43:08;;;;;;;;;;;16.80;82.80;;;;;;8375887;28;19947;-75
2022/04/12 20:47:09;;;;;;;;;;;16.70;82.80;;;;;;8366612;28;20281;-72
2022/04/12 20:51:11;;;;;;;;;;;16.70;83.50;;;;;;8365796;28;19946;-72
2022/04/12 20:55:13;;;;;;;;;;;16.60;82.90;;;;;;8360669;28;19924;-73
2022/04/12 20:59:16;;;;;;;;;;;16.50;83.00;;;;;;8356198;28;19924;-73
2022/04/12 21:03:17;;;;;;;;;;;16.40;83.10;;;;;;8368676;28;20313;-73
2022/04/12 21:07:19;;;;;;;;;;;16.20;83.20;;;;;;8410725;28;19924;-73
2022/04/12 21:11:21;;;;;;;;;;;16.10;83.40;;;;;;8385104;28;20375;-73
2022/04/12 21:15:23;;;;;;;;;;;16.10;83.50;;;;;;8387307;28;19936;-73
2022/04/12 21:19:24;;;;;;;;;;;16.00;83.70;;;;;;8387583;28;19957;-73
2022/04/12 21:23:26;;;;;;;;;;;16.00;83.80;;;;;;8394115;28;19958;-73
2022/04/12 21:27:28;;;;;;;;;;;15.90;83.90;;;;;;8395618;28;20375;-73
2022/04/12 21:31:30;;;;;;;;;;;15.90;84.10;;;;;;8383779;28;20240;-73
2022/04/12 21:35:32;;;;;;;;;;;15.80;84.20;;;;;;8378907;28;19925;-73
2022/04/12 21:39:34;;;;;;;;;;;15.70;84.50;;;;;;8376790;28;19932;-73
2022/04/12 21:43:35;;;;;;;;;;;15.60;84.60;;;;;;8383180;28;19924;-73
2022/04/12 21:47:48;;;;;;;;;;;15.50;84.80;;;;;;8382084;28;20341;-73
2022/04/12 21:51:50;;;;;;;;;;;15.40;85.10;;;;;;8380258;28;19966;-72
2022/04/12 21:55:51;;;;;;;;;;;15.40;85.40;;;;;;8390867;28;19932;-73
2022/04/12 21:59:53;;;;;;;;;;;15.30;85.60;;;;;;8389976;28;19933;-74
2022/04/12 22:03:55;;;;;;;;;;;15.30;85.80;;;;;;8383040;28;19925;-75
2022/04/12 22:07:59;;;;;;;;;;;15.20;86.10;;;;;;8374778;28;19928;-74
2022/04/12 22:12:00;;;;;;;;;;;15.20;86.40;;;;;;8373699;28;19999;-75
2022/04/12 22:16:02;;;;;;;;;;;15.10;86.70;;;;;;8388919;28;19924;-75
2022/04/12 22:20:06;;;;;;;;;;;15.10;87.10;;;;;;8388011;28;19925;-75
2022/04/12 22:24:08;;;;;;;;;;;15.00;87.30;;;;;;8389321;28;19924;-75
2022/04/12 22:28:09;;;;;;;;;;;15.00;87.60;;;;;;8390454;28;19931;-75
2022/04/12 22:32:11;;;;;;;;;;;15.00;87.60;;;;;;8374807;28;19986;-75
2022/04/12 22:36:13;;;;;;;;;;;15.00;87.60;;;;;;8379262;28;19948;-75
2022/04/12 22:40:34;;;;;;;;;;;14.90;87.60;;;;;;8382407;28;19960;-75
2022/04/12 22:44:39;;;;;;;;;;;14.90;87.70;;;;;;8385427;28;20353;-75
2022/04/12 22:48:41;;;;;;;;;;;14.70;87.80;;;;;;8386037;28;19959;-74
2022/04/12 22:52:42;;;;;;;;;;;14.60;87.90;;;;;;8391075;28;19931;-74
2022/04/12 22:56:44;;;;;;;;;;;14.60;88.20;;;;;;8382897;28;20316;-75
2022/04/12 23:00:46;;;;;;;;;;;14.50;88.30;;;;;;8380035;28;19924;-74
2022/04/12 23:04:47;;;;;;;;;;;14.50;88.60;;;;;;8382504;28;19924;-74
2022/04/12 23:08:49;;;;;;;;;;;14.50;88.80;;;;;;8383329;28;19935;-74
2022/04/12 23:12:51;;;;;;;;;;;14.50;89.00;;;;;;8368418;28;20403;-74
2022/04/12 23:16:52;;;;;;;;;;;14.50;89.10;;;;;;8400742;28;20375;-75
2022/04/12 23:20:54;;;;;;;;;;;14.40;89.10;;;;;;8389518;28;19961;-74
2022/04/12 23:24:56;;;;;;;;;;;14.40;89.40;;;;;;8384209;28;19925;-75
2022/04/12 23:28:57;;;;;;;;;;;14.30;89.70;;;;;;8375012;28;19937;-75
2022/04/12 23:32:59;;;;;;;;;;;14.20;89.90;;;;;;8379728;28;19924;-75
2022/04/12 23:37:01;;;;;;;;;;;14.10;90.00;;;;;;8403930;28;19925;-75
2022/04/12 23:41:23;;;;;;;;;;;14.10;90.10;;;;;;8376336;28;20302;-75
2022/04/12 23:45:24;;;;;;;;;;;14.10;90.20;;;;;;8377237;28;19983;-75
2022/04/12 23:49:26;;;;;;;;;;;14.10;90.20;;;;;;8380101;28;20367;-75